<?xml version="1.0" encoding="UTF-8" standalone="no" ?>
<gpx xmlns="http://www.topografix.com/GPX/1/1" xmlns:xsi="http://www.w3.org/2001/XMLSchema-instance" xsi:schemaLocation="http://www.topografix.com/GPX/1/1 http://www.topografix.com/GPX/1/1/gpx.xsd" version="1.1" creator="VisuGPX - https://www.visugpx.com">
  <metadata>
    <name>rando2</name>
    <desc><![CDATA[rando 22 avril Sonia Patrick Edmée Francis]]></desc>
  </metadata>
  <wpt lat="48.67223" lon="2.42985">
    <ele>81.356689453125</ele>
    <name><![CDATA[001]]></name>
    <desc><![CDATA[22-AVR-15 12:10:28]]></desc>
    <cmt><![CDATA[22-AVR-15 12:10:28]]></cmt>
  </wpt>
  <wpt lat="48.67396" lon="2.44477">
    <ele>87.845458984375</ele>
    <name><![CDATA[002]]></name>
    <desc><![CDATA[22-AVR-15 12:55:47]]></desc>
    <cmt><![CDATA[22-AVR-15 12:55:47]]></cmt>
  </wpt>
  <trk>
    <name><![CDATA[ACTIVE LOG]]></name>
    <trkseg>
      <trkpt lat="48.76948" lon="2.39904">
        <ele>-28.7021484375</ele>
        <time>2015-04-22T07:27:26Z</time>
      </trkpt>
      <trkpt lat="48.76948" lon="2.39904">
        <ele>-29.182861328125</ele>
        <time>2015-04-22T07:27:30Z</time>
      </trkpt>
    </trkseg>
  </trk>
  <trk>
    <name><![CDATA[ACTIVE LOG 001]]></name>
    <trkseg>
      <trkpt lat="48.76948" lon="2.39904">
        <ele>10.711791992188</ele>
        <time>2015-04-22T08:55:02Z</time>
      </trkpt>
      <trkpt lat="48.76948" lon="2.39904">
        <ele>8.30859375</ele>
        <time>2015-04-22T08:56:02Z</time>
      </trkpt>
    </trkseg>
  </trk>
  <trk>
    <name><![CDATA[ACTIVE LOG 002]]></name>
    <trkseg>
      <trkpt lat="48.69299" lon="2.48357">
        <ele>10.231201171875</ele>
        <time>2015-04-22T08:56:50Z</time>
      </trkpt>
      <trkpt lat="48.69306" lon="2.48356">
        <ele>64.545654296875</ele>
        <time>2015-04-22T08:57:49Z</time>
      </trkpt>
      <trkpt lat="48.6931" lon="2.48339">
        <ele>75.600830078125</ele>
        <time>2015-04-22T08:58:49Z</time>
      </trkpt>
      <trkpt lat="48.69302" lon="2.48349">
        <ele>74.639526367188</ele>
        <time>2015-04-22T08:59:49Z</time>
      </trkpt>
      <trkpt lat="48.69304" lon="2.48352">
        <ele>75.120239257812</ele>
        <time>2015-04-22T09:00:49Z</time>
      </trkpt>
      <trkpt lat="48.69272" lon="2.48303">
        <ele>77.042846679688</ele>
        <time>2015-04-22T09:01:49Z</time>
      </trkpt>
      <trkpt lat="48.69222" lon="2.48221">
        <ele>77.042846679688</ele>
        <time>2015-04-22T09:02:49Z</time>
      </trkpt>
      <trkpt lat="48.69173" lon="2.48134">
        <ele>77.042846679688</ele>
        <time>2015-04-22T09:03:49Z</time>
      </trkpt>
      <trkpt lat="48.69136" lon="2.4804">
        <ele>77.5234375</ele>
        <time>2015-04-22T09:04:49Z</time>
      </trkpt>
      <trkpt lat="48.69108" lon="2.47946">
        <ele>77.5234375</ele>
        <time>2015-04-22T09:05:49Z</time>
      </trkpt>
      <trkpt lat="48.69075" lon="2.47844">
        <ele>78.004028320312</ele>
        <time>2015-04-22T09:06:49Z</time>
      </trkpt>
      <trkpt lat="48.69059" lon="2.47799">
        <ele>78.484741210938</ele>
        <time>2015-04-22T09:07:49Z</time>
      </trkpt>
      <trkpt lat="48.69023" lon="2.47708">
        <ele>78.965454101562</ele>
        <time>2015-04-22T09:08:49Z</time>
      </trkpt>
      <trkpt lat="48.6902" lon="2.47613">
        <ele>80.407470703125</ele>
        <time>2015-04-22T09:09:49Z</time>
      </trkpt>
      <trkpt lat="48.69041" lon="2.47518">
        <ele>80.407470703125</ele>
        <time>2015-04-22T09:10:49Z</time>
      </trkpt>
      <trkpt lat="48.69021" lon="2.47416">
        <ele>80.88818359375</ele>
        <time>2015-04-22T09:11:49Z</time>
      </trkpt>
      <trkpt lat="48.69013" lon="2.47315">
        <ele>80.88818359375</ele>
        <time>2015-04-22T09:12:49Z</time>
      </trkpt>
      <trkpt lat="48.68993" lon="2.47216">
        <ele>80.88818359375</ele>
        <time>2015-04-22T09:13:49Z</time>
      </trkpt>
      <trkpt lat="48.69005" lon="2.47122">
        <ele>81.368774414062</ele>
        <time>2015-04-22T09:14:49Z</time>
      </trkpt>
      <trkpt lat="48.69" lon="2.47015">
        <ele>81.849365234375</ele>
        <time>2015-04-22T09:15:49Z</time>
      </trkpt>
      <trkpt lat="48.69032" lon="2.46917">
        <ele>82.330078125</ele>
        <time>2015-04-22T09:16:49Z</time>
      </trkpt>
      <trkpt lat="48.69067" lon="2.46828">
        <ele>82.810791015625</ele>
        <time>2015-04-22T09:17:49Z</time>
      </trkpt>
      <trkpt lat="48.69022" lon="2.46773">
        <ele>82.810791015625</ele>
        <time>2015-04-22T09:18:49Z</time>
      </trkpt>
      <trkpt lat="48.68951" lon="2.46751">
        <ele>83.291381835938</ele>
        <time>2015-04-22T09:19:49Z</time>
      </trkpt>
      <trkpt lat="48.68876" lon="2.46726">
        <ele>84.252685546875</ele>
        <time>2015-04-22T09:20:49Z</time>
      </trkpt>
      <trkpt lat="48.68811" lon="2.46698">
        <ele>83.77197265625</ele>
        <time>2015-04-22T09:21:49Z</time>
      </trkpt>
      <trkpt lat="48.68743" lon="2.46673">
        <ele>83.77197265625</ele>
        <time>2015-04-22T09:22:49Z</time>
      </trkpt>
      <trkpt lat="48.68681" lon="2.46651">
        <ele>84.7333984375</ele>
        <time>2015-04-22T09:23:49Z</time>
      </trkpt>
      <trkpt lat="48.68638" lon="2.46588">
        <ele>83.77197265625</ele>
        <time>2015-04-22T09:24:49Z</time>
      </trkpt>
      <trkpt lat="48.68613" lon="2.46506">
        <ele>84.7333984375</ele>
        <time>2015-04-22T09:25:49Z</time>
      </trkpt>
      <trkpt lat="48.68579" lon="2.46416">
        <ele>84.7333984375</ele>
        <time>2015-04-22T09:26:49Z</time>
      </trkpt>
      <trkpt lat="48.68554" lon="2.46322">
        <ele>84.7333984375</ele>
        <time>2015-04-22T09:27:49Z</time>
      </trkpt>
      <trkpt lat="48.68522" lon="2.46225">
        <ele>84.7333984375</ele>
        <time>2015-04-22T09:28:49Z</time>
      </trkpt>
      <trkpt lat="48.68485" lon="2.46128">
        <ele>84.252685546875</ele>
        <time>2015-04-22T09:29:49Z</time>
      </trkpt>
      <trkpt lat="48.6845" lon="2.46038">
        <ele>84.252685546875</ele>
        <time>2015-04-22T09:30:49Z</time>
      </trkpt>
      <trkpt lat="48.68419" lon="2.45937">
        <ele>83.77197265625</ele>
        <time>2015-04-22T09:31:49Z</time>
      </trkpt>
      <trkpt lat="48.68385" lon="2.45843">
        <ele>82.810791015625</ele>
        <time>2015-04-22T09:32:49Z</time>
      </trkpt>
      <trkpt lat="48.68352" lon="2.45746">
        <ele>81.368774414062</ele>
        <time>2015-04-22T09:33:49Z</time>
      </trkpt>
      <trkpt lat="48.68331" lon="2.45678">
        <ele>79.926635742188</ele>
        <time>2015-04-22T09:34:49Z</time>
      </trkpt>
      <trkpt lat="48.68297" lon="2.45585">
        <ele>77.042846679688</ele>
        <time>2015-04-22T09:35:49Z</time>
      </trkpt>
      <trkpt lat="48.68266" lon="2.4549">
        <ele>75.120239257812</ele>
        <time>2015-04-22T09:36:49Z</time>
      </trkpt>
      <trkpt lat="48.68236" lon="2.45398">
        <ele>75.120239257812</ele>
        <time>2015-04-22T09:37:49Z</time>
      </trkpt>
      <trkpt lat="48.68201" lon="2.45305">
        <ele>76.081420898438</ele>
        <time>2015-04-22T09:38:49Z</time>
      </trkpt>
      <trkpt lat="48.68169" lon="2.45216">
        <ele>77.042846679688</ele>
        <time>2015-04-22T09:39:49Z</time>
      </trkpt>
      <trkpt lat="48.68136" lon="2.45119">
        <ele>78.965454101562</ele>
        <time>2015-04-22T09:40:49Z</time>
      </trkpt>
      <trkpt lat="48.68106" lon="2.45033">
        <ele>79.926635742188</ele>
        <time>2015-04-22T09:41:49Z</time>
      </trkpt>
      <trkpt lat="48.68072" lon="2.44934">
        <ele>80.407470703125</ele>
        <time>2015-04-22T09:42:49Z</time>
      </trkpt>
      <trkpt lat="48.68041" lon="2.44839">
        <ele>80.88818359375</ele>
        <time>2015-04-22T09:43:49Z</time>
      </trkpt>
      <trkpt lat="48.68011" lon="2.4475">
        <ele>81.849365234375</ele>
        <time>2015-04-22T09:44:49Z</time>
      </trkpt>
      <trkpt lat="48.67967" lon="2.44653">
        <ele>83.291381835938</ele>
        <time>2015-04-22T09:45:49Z</time>
      </trkpt>
      <trkpt lat="48.67929" lon="2.44568">
        <ele>84.252685546875</ele>
        <time>2015-04-22T09:46:49Z</time>
      </trkpt>
      <trkpt lat="48.67887" lon="2.44477">
        <ele>84.7333984375</ele>
        <time>2015-04-22T09:47:49Z</time>
      </trkpt>
      <trkpt lat="48.67847" lon="2.44399">
        <ele>84.252685546875</ele>
        <time>2015-04-22T09:48:49Z</time>
      </trkpt>
      <trkpt lat="48.67802" lon="2.443">
        <ele>84.7333984375</ele>
        <time>2015-04-22T09:49:49Z</time>
      </trkpt>
      <trkpt lat="48.67766" lon="2.44218">
        <ele>83.77197265625</ele>
        <time>2015-04-22T09:50:49Z</time>
      </trkpt>
      <trkpt lat="48.6773" lon="2.44124">
        <ele>84.252685546875</ele>
        <time>2015-04-22T09:51:49Z</time>
      </trkpt>
      <trkpt lat="48.67686" lon="2.44022">
        <ele>83.77197265625</ele>
        <time>2015-04-22T09:52:49Z</time>
      </trkpt>
      <trkpt lat="48.67643" lon="2.43926">
        <ele>84.252685546875</ele>
        <time>2015-04-22T09:53:49Z</time>
      </trkpt>
      <trkpt lat="48.67593" lon="2.43819">
        <ele>84.7333984375</ele>
        <time>2015-04-22T09:54:49Z</time>
      </trkpt>
      <trkpt lat="48.67552" lon="2.4373">
        <ele>84.252685546875</ele>
        <time>2015-04-22T09:55:49Z</time>
      </trkpt>
      <trkpt lat="48.67508" lon="2.43626">
        <ele>84.252685546875</ele>
        <time>2015-04-22T09:56:49Z</time>
      </trkpt>
      <trkpt lat="48.67469" lon="2.43532">
        <ele>83.291381835938</ele>
        <time>2015-04-22T09:57:49Z</time>
      </trkpt>
      <trkpt lat="48.67423" lon="2.43436">
        <ele>82.810791015625</ele>
        <time>2015-04-22T09:58:49Z</time>
      </trkpt>
      <trkpt lat="48.67364" lon="2.43431">
        <ele>82.330078125</ele>
        <time>2015-04-22T09:59:49Z</time>
      </trkpt>
      <trkpt lat="48.67306" lon="2.43463">
        <ele>82.810791015625</ele>
        <time>2015-04-22T10:00:49Z</time>
      </trkpt>
      <trkpt lat="48.67237" lon="2.43456">
        <ele>82.810791015625</ele>
        <time>2015-04-22T10:01:49Z</time>
      </trkpt>
      <trkpt lat="48.67169" lon="2.43437">
        <ele>81.849365234375</ele>
        <time>2015-04-22T10:02:49Z</time>
      </trkpt>
      <trkpt lat="48.67092" lon="2.43444">
        <ele>81.368774414062</ele>
        <time>2015-04-22T10:03:49Z</time>
      </trkpt>
      <trkpt lat="48.67077" lon="2.43385">
        <ele>80.88818359375</ele>
        <time>2015-04-22T10:04:49Z</time>
      </trkpt>
      <trkpt lat="48.67113" lon="2.43319">
        <ele>80.407470703125</ele>
        <time>2015-04-22T10:05:49Z</time>
      </trkpt>
      <trkpt lat="48.67127" lon="2.43216">
        <ele>80.407470703125</ele>
        <time>2015-04-22T10:06:49Z</time>
      </trkpt>
      <trkpt lat="48.67122" lon="2.4313">
        <ele>80.88818359375</ele>
        <time>2015-04-22T10:07:49Z</time>
      </trkpt>
      <trkpt lat="48.67176" lon="2.4306">
        <ele>80.88818359375</ele>
        <time>2015-04-22T10:08:49Z</time>
      </trkpt>
      <trkpt lat="48.67202" lon="2.42979">
        <ele>80.407470703125</ele>
        <time>2015-04-22T10:09:49Z</time>
      </trkpt>
      <trkpt lat="48.67223" lon="2.4299">
        <ele>81.368774414062</ele>
        <time>2015-04-22T10:10:49Z</time>
      </trkpt>
      <trkpt lat="48.67208" lon="2.42974">
        <ele>81.368774414062</ele>
        <time>2015-04-22T10:11:49Z</time>
      </trkpt>
      <trkpt lat="48.67206" lon="2.42976">
        <ele>78.484741210938</ele>
        <time>2015-04-22T10:12:49Z</time>
      </trkpt>
      <trkpt lat="48.67169" lon="2.42978">
        <ele>81.368774414062</ele>
        <time>2015-04-22T10:13:49Z</time>
      </trkpt>
      <trkpt lat="48.67111" lon="2.42978">
        <ele>81.368774414062</ele>
        <time>2015-04-22T10:14:49Z</time>
      </trkpt>
      <trkpt lat="48.6705" lon="2.42982">
        <ele>81.849365234375</ele>
        <time>2015-04-22T10:15:49Z</time>
      </trkpt>
      <trkpt lat="48.66983" lon="2.42978">
        <ele>81.368774414062</ele>
        <time>2015-04-22T10:16:49Z</time>
      </trkpt>
      <trkpt lat="48.66917" lon="2.42977">
        <ele>81.849365234375</ele>
        <time>2015-04-22T10:17:49Z</time>
      </trkpt>
      <trkpt lat="48.6685" lon="2.42973">
        <ele>81.368774414062</ele>
        <time>2015-04-22T10:18:49Z</time>
      </trkpt>
      <trkpt lat="48.66781" lon="2.42976">
        <ele>81.368774414062</ele>
        <time>2015-04-22T10:19:49Z</time>
      </trkpt>
      <trkpt lat="48.66714" lon="2.42978">
        <ele>80.407470703125</ele>
        <time>2015-04-22T10:20:49Z</time>
      </trkpt>
      <trkpt lat="48.66665" lon="2.43057">
        <ele>80.88818359375</ele>
        <time>2015-04-22T10:21:49Z</time>
      </trkpt>
      <trkpt lat="48.66616" lon="2.43126">
        <ele>80.407470703125</ele>
        <time>2015-04-22T10:22:49Z</time>
      </trkpt>
      <trkpt lat="48.66566" lon="2.43199">
        <ele>78.004028320312</ele>
        <time>2015-04-22T10:23:49Z</time>
      </trkpt>
      <trkpt lat="48.666" lon="2.43279">
        <ele>78.965454101562</ele>
        <time>2015-04-22T10:24:49Z</time>
      </trkpt>
      <trkpt lat="48.66655" lon="2.43355">
        <ele>80.407470703125</ele>
        <time>2015-04-22T10:25:49Z</time>
      </trkpt>
      <trkpt lat="48.66707" lon="2.43427">
        <ele>80.88818359375</ele>
        <time>2015-04-22T10:26:49Z</time>
      </trkpt>
      <trkpt lat="48.66733" lon="2.43482">
        <ele>83.77197265625</ele>
        <time>2015-04-22T10:27:49Z</time>
      </trkpt>
      <trkpt lat="48.66781" lon="2.43549">
        <ele>82.810791015625</ele>
        <time>2015-04-22T10:28:49Z</time>
      </trkpt>
      <trkpt lat="48.66801" lon="2.43622">
        <ele>84.7333984375</ele>
        <time>2015-04-22T10:29:49Z</time>
      </trkpt>
      <trkpt lat="48.66749" lon="2.43698">
        <ele>84.252685546875</ele>
        <time>2015-04-22T10:30:49Z</time>
      </trkpt>
      <trkpt lat="48.66703" lon="2.43751">
        <ele>82.330078125</ele>
        <time>2015-04-22T10:31:49Z</time>
      </trkpt>
      <trkpt lat="48.6667" lon="2.43813">
        <ele>82.810791015625</ele>
        <time>2015-04-22T10:32:49Z</time>
      </trkpt>
      <trkpt lat="48.66625" lon="2.43882">
        <ele>83.291381835938</ele>
        <time>2015-04-22T10:33:49Z</time>
      </trkpt>
      <trkpt lat="48.66579" lon="2.43948">
        <ele>83.77197265625</ele>
        <time>2015-04-22T10:34:49Z</time>
      </trkpt>
      <trkpt lat="48.66556" lon="2.44026">
        <ele>85.213989257812</ele>
        <time>2015-04-22T10:35:49Z</time>
      </trkpt>
      <trkpt lat="48.66603" lon="2.44097">
        <ele>86.17529296875</ele>
        <time>2015-04-22T10:36:49Z</time>
      </trkpt>
      <trkpt lat="48.66652" lon="2.44169">
        <ele>86.17529296875</ele>
        <time>2015-04-22T10:37:49Z</time>
      </trkpt>
      <trkpt lat="48.66695" lon="2.44235">
        <ele>87.136596679688</ele>
        <time>2015-04-22T10:38:49Z</time>
      </trkpt>
      <trkpt lat="48.66737" lon="2.44307">
        <ele>87.6171875</ele>
        <time>2015-04-22T10:39:49Z</time>
      </trkpt>
      <trkpt lat="48.66788" lon="2.44372">
        <ele>87.6171875</ele>
        <time>2015-04-22T10:40:49Z</time>
      </trkpt>
      <trkpt lat="48.66836" lon="2.44448">
        <ele>88.098022460938</ele>
        <time>2015-04-22T10:41:49Z</time>
      </trkpt>
      <trkpt lat="48.66889" lon="2.44467">
        <ele>86.17529296875</ele>
        <time>2015-04-22T10:42:49Z</time>
      </trkpt>
      <trkpt lat="48.66947" lon="2.44401">
        <ele>87.6171875</ele>
        <time>2015-04-22T10:43:49Z</time>
      </trkpt>
      <trkpt lat="48.67002" lon="2.44336">
        <ele>88.098022460938</ele>
        <time>2015-04-22T10:44:49Z</time>
      </trkpt>
      <trkpt lat="48.67062" lon="2.44271">
        <ele>87.6171875</ele>
        <time>2015-04-22T10:45:49Z</time>
      </trkpt>
      <trkpt lat="48.6712" lon="2.44204">
        <ele>88.098022460938</ele>
        <time>2015-04-22T10:46:49Z</time>
      </trkpt>
      <trkpt lat="48.67166" lon="2.44141">
        <ele>88.098022460938</ele>
        <time>2015-04-22T10:47:49Z</time>
      </trkpt>
      <trkpt lat="48.67209" lon="2.44206">
        <ele>87.6171875</ele>
        <time>2015-04-22T10:48:49Z</time>
      </trkpt>
      <trkpt lat="48.67244" lon="2.44264">
        <ele>88.098022460938</ele>
        <time>2015-04-22T10:49:49Z</time>
      </trkpt>
      <trkpt lat="48.67299" lon="2.44337">
        <ele>87.6171875</ele>
        <time>2015-04-22T10:50:49Z</time>
      </trkpt>
      <trkpt lat="48.67351" lon="2.44416">
        <ele>86.17529296875</ele>
        <time>2015-04-22T10:51:49Z</time>
      </trkpt>
      <trkpt lat="48.67391" lon="2.44466">
        <ele>87.136596679688</ele>
        <time>2015-04-22T10:52:49Z</time>
      </trkpt>
      <trkpt lat="48.67387" lon="2.44467">
        <ele>87.136596679688</ele>
        <time>2015-04-22T10:53:49Z</time>
      </trkpt>
      <trkpt lat="48.67389" lon="2.44469">
        <ele>87.136596679688</ele>
        <time>2015-04-22T10:54:49Z</time>
      </trkpt>
      <trkpt lat="48.67396" lon="2.44476">
        <ele>88.098022460938</ele>
        <time>2015-04-22T10:55:49Z</time>
      </trkpt>
      <trkpt lat="48.67387" lon="2.44472">
        <ele>86.656005859375</ele>
        <time>2015-04-22T10:56:49Z</time>
      </trkpt>
      <trkpt lat="48.67382" lon="2.44488">
        <ele>85.694580078125</ele>
        <time>2015-04-22T10:57:49Z</time>
      </trkpt>
      <trkpt lat="48.67394" lon="2.44446">
        <ele>86.17529296875</ele>
        <time>2015-04-22T10:58:49Z</time>
      </trkpt>
      <trkpt lat="48.67388" lon="2.44437">
        <ele>86.17529296875</ele>
        <time>2015-04-22T10:59:49Z</time>
      </trkpt>
      <trkpt lat="48.67387" lon="2.44445">
        <ele>89.059326171875</ele>
        <time>2015-04-22T11:00:02Z</time>
      </trkpt>
    </trkseg>
  </trk>
  <trk>
    <name><![CDATA[ACTIVE LOG 003]]></name>
    <trkseg>
      <trkpt lat="48.67387" lon="2.44439">
        <ele>91.943237304688</ele>
        <time>2015-04-22T11:55:22Z</time>
      </trkpt>
    </trkseg>
  </trk>
  <trk>
    <name><![CDATA[ACTIVE LOG 004]]></name>
    <trkseg>
      <trkpt lat="48.67397" lon="2.44457">
        <ele>89.059326171875</ele>
        <time>2015-04-22T11:55:26Z</time>
      </trkpt>
      <trkpt lat="48.674" lon="2.4445">
        <ele>84.252685546875</ele>
        <time>2015-04-22T11:56:26Z</time>
      </trkpt>
      <trkpt lat="48.67388" lon="2.44466">
        <ele>84.7333984375</ele>
        <time>2015-04-22T11:57:26Z</time>
      </trkpt>
      <trkpt lat="48.67404" lon="2.44528">
        <ele>84.7333984375</ele>
        <time>2015-04-22T11:58:26Z</time>
      </trkpt>
      <trkpt lat="48.67423" lon="2.44615">
        <ele>83.77197265625</ele>
        <time>2015-04-22T11:59:26Z</time>
      </trkpt>
      <trkpt lat="48.67444" lon="2.44699">
        <ele>82.810791015625</ele>
        <time>2015-04-22T12:00:28Z</time>
      </trkpt>
      <trkpt lat="48.67466" lon="2.44785">
        <ele>84.7333984375</ele>
        <time>2015-04-22T12:01:28Z</time>
      </trkpt>
      <trkpt lat="48.67489" lon="2.44881">
        <ele>84.252685546875</ele>
        <time>2015-04-22T12:02:28Z</time>
      </trkpt>
      <trkpt lat="48.67508" lon="2.44969">
        <ele>85.213989257812</ele>
        <time>2015-04-22T12:03:28Z</time>
      </trkpt>
      <trkpt lat="48.67529" lon="2.45058">
        <ele>83.291381835938</ele>
        <time>2015-04-22T12:04:28Z</time>
      </trkpt>
      <trkpt lat="48.67553" lon="2.45156">
        <ele>83.77197265625</ele>
        <time>2015-04-22T12:05:28Z</time>
      </trkpt>
      <trkpt lat="48.6753" lon="2.45235">
        <ele>82.810791015625</ele>
        <time>2015-04-22T12:06:28Z</time>
      </trkpt>
      <trkpt lat="48.67494" lon="2.45318">
        <ele>84.7333984375</ele>
        <time>2015-04-22T12:07:28Z</time>
      </trkpt>
      <trkpt lat="48.67458" lon="2.45401">
        <ele>83.291381835938</ele>
        <time>2015-04-22T12:08:28Z</time>
      </trkpt>
      <trkpt lat="48.67421" lon="2.45479">
        <ele>83.77197265625</ele>
        <time>2015-04-22T12:09:28Z</time>
      </trkpt>
      <trkpt lat="48.67386" lon="2.45559">
        <ele>84.7333984375</ele>
        <time>2015-04-22T12:10:28Z</time>
      </trkpt>
      <trkpt lat="48.67345" lon="2.45647">
        <ele>85.213989257812</ele>
        <time>2015-04-22T12:11:28Z</time>
      </trkpt>
      <trkpt lat="48.67306" lon="2.4573">
        <ele>84.7333984375</ele>
        <time>2015-04-22T12:12:28Z</time>
      </trkpt>
      <trkpt lat="48.67267" lon="2.4581">
        <ele>85.213989257812</ele>
        <time>2015-04-22T12:13:28Z</time>
      </trkpt>
      <trkpt lat="48.6723" lon="2.45889">
        <ele>85.694580078125</ele>
        <time>2015-04-22T12:14:28Z</time>
      </trkpt>
      <trkpt lat="48.67186" lon="2.45951">
        <ele>85.213989257812</ele>
        <time>2015-04-22T12:15:28Z</time>
      </trkpt>
      <trkpt lat="48.6719" lon="2.46025">
        <ele>84.7333984375</ele>
        <time>2015-04-22T12:16:28Z</time>
      </trkpt>
      <trkpt lat="48.67213" lon="2.46118">
        <ele>83.291381835938</ele>
        <time>2015-04-22T12:17:28Z</time>
      </trkpt>
      <trkpt lat="48.67236" lon="2.46206">
        <ele>83.291381835938</ele>
        <time>2015-04-22T12:18:28Z</time>
      </trkpt>
      <trkpt lat="48.67234" lon="2.46291">
        <ele>83.291381835938</ele>
        <time>2015-04-22T12:19:28Z</time>
      </trkpt>
      <trkpt lat="48.67174" lon="2.46344">
        <ele>83.291381835938</ele>
        <time>2015-04-22T12:20:28Z</time>
      </trkpt>
      <trkpt lat="48.67119" lon="2.46402">
        <ele>82.810791015625</ele>
        <time>2015-04-22T12:21:28Z</time>
      </trkpt>
      <trkpt lat="48.67059" lon="2.46459">
        <ele>83.77197265625</ele>
        <time>2015-04-22T12:22:28Z</time>
      </trkpt>
      <trkpt lat="48.67002" lon="2.46516">
        <ele>82.810791015625</ele>
        <time>2015-04-22T12:23:28Z</time>
      </trkpt>
      <trkpt lat="48.66941" lon="2.46576">
        <ele>83.77197265625</ele>
        <time>2015-04-22T12:24:28Z</time>
      </trkpt>
      <trkpt lat="48.66882" lon="2.46636">
        <ele>84.252685546875</ele>
        <time>2015-04-22T12:25:28Z</time>
      </trkpt>
      <trkpt lat="48.6682" lon="2.46693">
        <ele>85.213989257812</ele>
        <time>2015-04-22T12:26:28Z</time>
      </trkpt>
      <trkpt lat="48.66763" lon="2.46749">
        <ele>86.17529296875</ele>
        <time>2015-04-22T12:27:28Z</time>
      </trkpt>
      <trkpt lat="48.66703" lon="2.46808">
        <ele>86.17529296875</ele>
        <time>2015-04-22T12:28:28Z</time>
      </trkpt>
      <trkpt lat="48.66642" lon="2.46868">
        <ele>86.17529296875</ele>
        <time>2015-04-22T12:29:28Z</time>
      </trkpt>
      <trkpt lat="48.66579" lon="2.46928">
        <ele>86.17529296875</ele>
        <time>2015-04-22T12:30:28Z</time>
      </trkpt>
      <trkpt lat="48.66508" lon="2.46999">
        <ele>85.694580078125</ele>
        <time>2015-04-22T12:31:28Z</time>
      </trkpt>
      <trkpt lat="48.66443" lon="2.47061">
        <ele>85.213989257812</ele>
        <time>2015-04-22T12:32:28Z</time>
      </trkpt>
      <trkpt lat="48.66382" lon="2.47119">
        <ele>85.694580078125</ele>
        <time>2015-04-22T12:33:28Z</time>
      </trkpt>
      <trkpt lat="48.66322" lon="2.47179">
        <ele>88.098022460938</ele>
        <time>2015-04-22T12:34:28Z</time>
      </trkpt>
      <trkpt lat="48.66261" lon="2.47239">
        <ele>88.098022460938</ele>
        <time>2015-04-22T12:35:28Z</time>
      </trkpt>
      <trkpt lat="48.66194" lon="2.47304">
        <ele>87.6171875</ele>
        <time>2015-04-22T12:36:28Z</time>
      </trkpt>
      <trkpt lat="48.66127" lon="2.47366">
        <ele>87.136596679688</ele>
        <time>2015-04-22T12:37:28Z</time>
      </trkpt>
      <trkpt lat="48.66063" lon="2.47429">
        <ele>87.6171875</ele>
        <time>2015-04-22T12:38:28Z</time>
      </trkpt>
      <trkpt lat="48.65998" lon="2.47491">
        <ele>88.098022460938</ele>
        <time>2015-04-22T12:39:28Z</time>
      </trkpt>
      <trkpt lat="48.65935" lon="2.47552">
        <ele>88.578735351562</ele>
        <time>2015-04-22T12:40:28Z</time>
      </trkpt>
      <trkpt lat="48.6587" lon="2.47616">
        <ele>89.059326171875</ele>
        <time>2015-04-22T12:41:28Z</time>
      </trkpt>
      <trkpt lat="48.65803" lon="2.4768">
        <ele>90.020629882812</ele>
        <time>2015-04-22T12:42:28Z</time>
      </trkpt>
      <trkpt lat="48.65736" lon="2.47745">
        <ele>89.539916992188</ele>
        <time>2015-04-22T12:43:28Z</time>
      </trkpt>
      <trkpt lat="48.65669" lon="2.47811">
        <ele>88.578735351562</ele>
        <time>2015-04-22T12:44:28Z</time>
      </trkpt>
      <trkpt lat="48.65606" lon="2.47878">
        <ele>89.059326171875</ele>
        <time>2015-04-22T12:45:28Z</time>
      </trkpt>
      <trkpt lat="48.65615" lon="2.47962">
        <ele>88.578735351562</ele>
        <time>2015-04-22T12:46:28Z</time>
      </trkpt>
      <trkpt lat="48.65638" lon="2.48056">
        <ele>89.539916992188</ele>
        <time>2015-04-22T12:47:28Z</time>
      </trkpt>
      <trkpt lat="48.65663" lon="2.48162">
        <ele>88.578735351562</ele>
        <time>2015-04-22T12:48:28Z</time>
      </trkpt>
      <trkpt lat="48.65688" lon="2.48263">
        <ele>89.059326171875</ele>
        <time>2015-04-22T12:49:28Z</time>
      </trkpt>
      <trkpt lat="48.65709" lon="2.48364">
        <ele>89.539916992188</ele>
        <time>2015-04-22T12:50:28Z</time>
      </trkpt>
      <trkpt lat="48.65739" lon="2.48476">
        <ele>89.539916992188</ele>
        <time>2015-04-22T12:51:28Z</time>
      </trkpt>
      <trkpt lat="48.65764" lon="2.48587">
        <ele>89.539916992188</ele>
        <time>2015-04-22T12:52:28Z</time>
      </trkpt>
      <trkpt lat="48.65787" lon="2.48689">
        <ele>89.539916992188</ele>
        <time>2015-04-22T12:53:28Z</time>
      </trkpt>
      <trkpt lat="48.65772" lon="2.48786">
        <ele>89.539916992188</ele>
        <time>2015-04-22T12:54:28Z</time>
      </trkpt>
      <trkpt lat="48.6575" lon="2.48894">
        <ele>89.059326171875</ele>
        <time>2015-04-22T12:55:28Z</time>
      </trkpt>
      <trkpt lat="48.65726" lon="2.48998">
        <ele>87.6171875</ele>
        <time>2015-04-22T12:56:28Z</time>
      </trkpt>
      <trkpt lat="48.65702" lon="2.49104">
        <ele>88.098022460938</ele>
        <time>2015-04-22T12:57:28Z</time>
      </trkpt>
      <trkpt lat="48.65685" lon="2.49195">
        <ele>87.136596679688</ele>
        <time>2015-04-22T12:58:28Z</time>
      </trkpt>
      <trkpt lat="48.65686" lon="2.49247">
        <ele>87.6171875</ele>
        <time>2015-04-22T12:59:28Z</time>
      </trkpt>
      <trkpt lat="48.65717" lon="2.49253">
        <ele>87.136596679688</ele>
        <time>2015-04-22T13:00:28Z</time>
      </trkpt>
      <trkpt lat="48.65714" lon="2.4925">
        <ele>87.136596679688</ele>
        <time>2015-04-22T13:01:28Z</time>
      </trkpt>
      <trkpt lat="48.65714" lon="2.49254">
        <ele>87.136596679688</ele>
        <time>2015-04-22T13:02:28Z</time>
      </trkpt>
      <trkpt lat="48.65716" lon="2.49258">
        <ele>87.136596679688</ele>
        <time>2015-04-22T13:03:28Z</time>
      </trkpt>
      <trkpt lat="48.65716" lon="2.49261">
        <ele>85.694580078125</ele>
        <time>2015-04-22T13:04:28Z</time>
      </trkpt>
      <trkpt lat="48.65705" lon="2.49257">
        <ele>85.694580078125</ele>
        <time>2015-04-22T13:05:28Z</time>
      </trkpt>
      <trkpt lat="48.65717" lon="2.49256">
        <ele>84.7333984375</ele>
        <time>2015-04-22T13:06:28Z</time>
      </trkpt>
      <trkpt lat="48.65712" lon="2.49254">
        <ele>84.7333984375</ele>
        <time>2015-04-22T13:07:28Z</time>
      </trkpt>
      <trkpt lat="48.65715" lon="2.49255">
        <ele>86.656005859375</ele>
        <time>2015-04-22T13:08:28Z</time>
      </trkpt>
      <trkpt lat="48.65718" lon="2.49253">
        <ele>85.694580078125</ele>
        <time>2015-04-22T13:09:28Z</time>
      </trkpt>
      <trkpt lat="48.65717" lon="2.49258">
        <ele>83.77197265625</ele>
        <time>2015-04-22T13:10:28Z</time>
      </trkpt>
      <trkpt lat="48.65739" lon="2.49257">
        <ele>84.7333984375</ele>
        <time>2015-04-22T13:11:28Z</time>
      </trkpt>
      <trkpt lat="48.65796" lon="2.49248">
        <ele>85.213989257812</ele>
        <time>2015-04-22T13:12:28Z</time>
      </trkpt>
      <trkpt lat="48.65858" lon="2.49233">
        <ele>84.7333984375</ele>
        <time>2015-04-22T13:13:28Z</time>
      </trkpt>
      <trkpt lat="48.65912" lon="2.49213">
        <ele>85.213989257812</ele>
        <time>2015-04-22T13:14:28Z</time>
      </trkpt>
      <trkpt lat="48.65969" lon="2.49261">
        <ele>84.252685546875</ele>
        <time>2015-04-22T13:15:28Z</time>
      </trkpt>
      <trkpt lat="48.66032" lon="2.49268">
        <ele>84.7333984375</ele>
        <time>2015-04-22T13:16:28Z</time>
      </trkpt>
      <trkpt lat="48.66086" lon="2.49278">
        <ele>86.656005859375</ele>
        <time>2015-04-22T13:17:28Z</time>
      </trkpt>
      <trkpt lat="48.6615" lon="2.49275">
        <ele>86.656005859375</ele>
        <time>2015-04-22T13:18:28Z</time>
      </trkpt>
      <trkpt lat="48.66213" lon="2.4928">
        <ele>85.694580078125</ele>
        <time>2015-04-22T13:19:28Z</time>
      </trkpt>
      <trkpt lat="48.66276" lon="2.49273">
        <ele>85.694580078125</ele>
        <time>2015-04-22T13:20:28Z</time>
      </trkpt>
      <trkpt lat="48.66339" lon="2.49253">
        <ele>86.17529296875</ele>
        <time>2015-04-22T13:21:28Z</time>
      </trkpt>
      <trkpt lat="48.66405" lon="2.49269">
        <ele>84.7333984375</ele>
        <time>2015-04-22T13:22:28Z</time>
      </trkpt>
      <trkpt lat="48.66469" lon="2.49291">
        <ele>84.7333984375</ele>
        <time>2015-04-22T13:23:28Z</time>
      </trkpt>
      <trkpt lat="48.66533" lon="2.493">
        <ele>85.694580078125</ele>
        <time>2015-04-22T13:24:28Z</time>
      </trkpt>
      <trkpt lat="48.66598" lon="2.49338">
        <ele>85.694580078125</ele>
        <time>2015-04-22T13:25:28Z</time>
      </trkpt>
      <trkpt lat="48.66661" lon="2.49365">
        <ele>85.694580078125</ele>
        <time>2015-04-22T13:26:28Z</time>
      </trkpt>
      <trkpt lat="48.66727" lon="2.4939">
        <ele>84.7333984375</ele>
        <time>2015-04-22T13:27:28Z</time>
      </trkpt>
      <trkpt lat="48.66782" lon="2.49412">
        <ele>85.213989257812</ele>
        <time>2015-04-22T13:28:28Z</time>
      </trkpt>
      <trkpt lat="48.66839" lon="2.49447">
        <ele>84.7333984375</ele>
        <time>2015-04-22T13:29:28Z</time>
      </trkpt>
      <trkpt lat="48.66905" lon="2.49485">
        <ele>84.7333984375</ele>
        <time>2015-04-22T13:30:28Z</time>
      </trkpt>
      <trkpt lat="48.66941" lon="2.49502">
        <ele>83.77197265625</ele>
        <time>2015-04-22T13:31:28Z</time>
      </trkpt>
      <trkpt lat="48.66998" lon="2.49515">
        <ele>84.252685546875</ele>
        <time>2015-04-22T13:32:28Z</time>
      </trkpt>
      <trkpt lat="48.67064" lon="2.49514">
        <ele>82.810791015625</ele>
        <time>2015-04-22T13:33:28Z</time>
      </trkpt>
      <trkpt lat="48.67134" lon="2.49513">
        <ele>83.291381835938</ele>
        <time>2015-04-22T13:34:28Z</time>
      </trkpt>
      <trkpt lat="48.67211" lon="2.49515">
        <ele>83.291381835938</ele>
        <time>2015-04-22T13:35:28Z</time>
      </trkpt>
      <trkpt lat="48.67276" lon="2.49531">
        <ele>82.330078125</ele>
        <time>2015-04-22T13:36:28Z</time>
      </trkpt>
      <trkpt lat="48.67346" lon="2.49559">
        <ele>81.849365234375</ele>
        <time>2015-04-22T13:37:28Z</time>
      </trkpt>
      <trkpt lat="48.67401" lon="2.4959">
        <ele>81.368774414062</ele>
        <time>2015-04-22T13:38:28Z</time>
      </trkpt>
      <trkpt lat="48.67481" lon="2.49605">
        <ele>80.88818359375</ele>
        <time>2015-04-22T13:39:28Z</time>
      </trkpt>
      <trkpt lat="48.67544" lon="2.4961">
        <ele>82.330078125</ele>
        <time>2015-04-22T13:40:28Z</time>
      </trkpt>
      <trkpt lat="48.67617" lon="2.49616">
        <ele>81.368774414062</ele>
        <time>2015-04-22T13:41:28Z</time>
      </trkpt>
      <trkpt lat="48.67684" lon="2.4962">
        <ele>80.88818359375</ele>
        <time>2015-04-22T13:42:28Z</time>
      </trkpt>
      <trkpt lat="48.67755" lon="2.4961">
        <ele>81.849365234375</ele>
        <time>2015-04-22T13:43:28Z</time>
      </trkpt>
      <trkpt lat="48.6779" lon="2.49571">
        <ele>80.88818359375</ele>
        <time>2015-04-22T13:44:28Z</time>
      </trkpt>
      <trkpt lat="48.6781" lon="2.49479">
        <ele>81.368774414062</ele>
        <time>2015-04-22T13:45:28Z</time>
      </trkpt>
      <trkpt lat="48.67845" lon="2.49405">
        <ele>81.849365234375</ele>
        <time>2015-04-22T13:46:28Z</time>
      </trkpt>
      <trkpt lat="48.67872" lon="2.4932">
        <ele>82.330078125</ele>
        <time>2015-04-22T13:47:28Z</time>
      </trkpt>
      <trkpt lat="48.67919" lon="2.49265">
        <ele>83.291381835938</ele>
        <time>2015-04-22T13:48:28Z</time>
      </trkpt>
      <trkpt lat="48.67966" lon="2.49224">
        <ele>83.77197265625</ele>
        <time>2015-04-22T13:49:28Z</time>
      </trkpt>
      <trkpt lat="48.68013" lon="2.49157">
        <ele>84.7333984375</ele>
        <time>2015-04-22T13:50:28Z</time>
      </trkpt>
      <trkpt lat="48.68056" lon="2.49115">
        <ele>85.694580078125</ele>
        <time>2015-04-22T13:51:28Z</time>
      </trkpt>
      <trkpt lat="48.68089" lon="2.49077">
        <ele>85.213989257812</ele>
        <time>2015-04-22T13:52:28Z</time>
      </trkpt>
      <trkpt lat="48.68115" lon="2.49049">
        <ele>85.213989257812</ele>
        <time>2015-04-22T13:53:28Z</time>
      </trkpt>
      <trkpt lat="48.68158" lon="2.4899">
        <ele>84.7333984375</ele>
        <time>2015-04-22T13:54:28Z</time>
      </trkpt>
      <trkpt lat="48.68219" lon="2.48962">
        <ele>85.213989257812</ele>
        <time>2015-04-22T13:55:28Z</time>
      </trkpt>
      <trkpt lat="48.68275" lon="2.48936">
        <ele>85.694580078125</ele>
        <time>2015-04-22T13:56:28Z</time>
      </trkpt>
      <trkpt lat="48.68336" lon="2.48967">
        <ele>85.213989257812</ele>
        <time>2015-04-22T13:57:28Z</time>
      </trkpt>
      <trkpt lat="48.68395" lon="2.48971">
        <ele>87.136596679688</ele>
        <time>2015-04-22T13:58:28Z</time>
      </trkpt>
      <trkpt lat="48.68447" lon="2.49001">
        <ele>86.17529296875</ele>
        <time>2015-04-22T13:59:28Z</time>
      </trkpt>
      <trkpt lat="48.68521" lon="2.48999">
        <ele>86.656005859375</ele>
        <time>2015-04-22T14:00:28Z</time>
      </trkpt>
      <trkpt lat="48.68593" lon="2.48999">
        <ele>86.17529296875</ele>
        <time>2015-04-22T14:01:28Z</time>
      </trkpt>
      <trkpt lat="48.6866" lon="2.4898">
        <ele>84.252685546875</ele>
        <time>2015-04-22T14:02:28Z</time>
      </trkpt>
      <trkpt lat="48.68709" lon="2.48925">
        <ele>82.810791015625</ele>
        <time>2015-04-22T14:03:28Z</time>
      </trkpt>
      <trkpt lat="48.68764" lon="2.48848">
        <ele>81.849365234375</ele>
        <time>2015-04-22T14:04:28Z</time>
      </trkpt>
      <trkpt lat="48.68822" lon="2.48773">
        <ele>81.368774414062</ele>
        <time>2015-04-22T14:05:28Z</time>
      </trkpt>
      <trkpt lat="48.68881" lon="2.48698">
        <ele>80.88818359375</ele>
        <time>2015-04-22T14:06:28Z</time>
      </trkpt>
      <trkpt lat="48.68937" lon="2.48623">
        <ele>81.368774414062</ele>
        <time>2015-04-22T14:07:28Z</time>
      </trkpt>
      <trkpt lat="48.68998" lon="2.48549">
        <ele>80.407470703125</ele>
        <time>2015-04-22T14:08:28Z</time>
      </trkpt>
      <trkpt lat="48.69054" lon="2.48474">
        <ele>81.849365234375</ele>
        <time>2015-04-22T14:09:28Z</time>
      </trkpt>
      <trkpt lat="48.69114" lon="2.48401">
        <ele>80.88818359375</ele>
        <time>2015-04-22T14:10:28Z</time>
      </trkpt>
      <trkpt lat="48.69174" lon="2.48329">
        <ele>81.849365234375</ele>
        <time>2015-04-22T14:11:28Z</time>
      </trkpt>
      <trkpt lat="48.69231" lon="2.4826">
        <ele>81.849365234375</ele>
        <time>2015-04-22T14:12:28Z</time>
      </trkpt>
      <trkpt lat="48.69276" lon="2.48322">
        <ele>81.368774414062</ele>
        <time>2015-04-22T14:13:28Z</time>
      </trkpt>
      <trkpt lat="48.69301" lon="2.48348">
        <ele>81.849365234375</ele>
        <time>2015-04-22T14:14:09Z</time>
      </trkpt>
    </trkseg>
  </trk>
  <trk>
    <name><![CDATA[ACTIVE LOG 005]]></name>
    <trkseg>
      <trkpt lat="48.69305" lon="2.48346">
        <ele>55.893798828125</ele>
        <time>2015-04-22T16:01:07Z</time>
      </trkpt>
    </trkseg>
  </trk>
</gpx>